Time;durP1;ratioP1;P1;durP2;ratioP2;P2;SDS_P1;SDS_P2;PMS_P1;PMS_P2;Temp;Humidity;BMP_temperature;BMP_pressure;BME280_temperature;BME280_humidity;BME280_pressure;Samples;Min_cycle;Max_cycle;Signal;HPM_P1;HPM_P2
2021/10/22 00:00:14;;;;;;;9.70;0.85;;;7.60;99.90;;;;;;5096099;27;20486;-67
2021/10/22 00:02:40;;;;;;;12.75;1.10;;;7.50;99.90;;;;;;5096341;27;20093;-68
2021/10/22 00:05:06;;;;;;;9.98;0.90;;;7.60;99.90;;;;;;5096090;28;20040;-68
2021/10/22 00:07:31;;;;;;;5.57;1.33;;;7.50;99.90;;;;;;5098667;27;20039;-68
2021/10/22 00:09:57;;;;;;;6.15;0.90;;;7.60;99.90;;;;;;5098970;28;20032;-68
2021/10/22 00:12:23;;;;;;;9.45;1.08;;;7.50;99.90;;;;;;5095026;28;20035;-68
2021/10/22 00:14:49;;;;;;;14.07;0.95;;;7.50;99.90;;;;;;5097483;27;20039;-67
2021/10/22 00:17:14;;;;;;;14.18;1.80;;;7.50;99.90;;;;;;5093896;28;20066;-67
2021/10/22 00:19:40;;;;;;;8.60;0.90;;;7.60;99.90;;;;;;5094383;27;20036;-67
2021/10/22 00:22:16;;;;;;;10.98;1.48;;;7.60;99.90;;;;;;5097030;28;20073;-67
2021/10/22 00:24:41;;;;;;;12.10;1.50;;;7.60;99.90;;;;;;5100887;27;20464;-67
2021/10/22 00:27:07;;;;;;;11.32;1.05;;;7.60;99.90;;;;;;5098679;27;20071;-67
2021/10/22 00:29:32;;;;;;;11.13;1.65;;;7.70;99.90;;;;;;5098212;27;20043;-67
2021/10/22 00:31:58;;;;;;;16.77;1.45;;;7.70;99.90;;;;;;5099636;27;20373;-67
2021/10/22 00:34:24;;;;;;;12.73;1.75;;;7.70;99.90;;;;;;5094696;28;20104;-67
2021/10/22 00:36:50;;;;;;;10.80;1.27;;;7.80;99.90;;;;;;5124060;27;20392;-67
2021/10/22 00:39:15;;;;;;;9.00;1.02;;;7.80;99.90;;;;;;5099473;27;20048;-67
2021/10/22 00:41:42;;;;;;;12.77;1.45;;;7.80;99.90;;;;;;5097328;28;20051;-67
2021/10/22 00:44:08;;;;;;;12.48;1.52;;;7.80;99.90;;;;;;5092397;28;20051;-67
2021/10/22 00:46:37;;;;;;;8.52;1.05;;;7.80;99.90;;;;;;5097343;27;20036;-68
2021/10/22 00:49:07;;;;;;;11.07;2.00;;;7.80;99.90;;;;;;5098721;28;20044;-68
2021/10/22 00:51:32;;;;;;;15.00;1.77;;;7.80;99.90;;;;;;5102449;28;20485;-67
2021/10/22 00:53:58;;;;;;;6.43;1.42;;;7.90;99.90;;;;;;5130027;27;20047;-68
2021/10/22 00:56:24;;;;;;;10.13;1.30;;;7.90;99.90;;;;;;5108114;27;20542;-68
2021/10/22 00:58:50;;;;;;;8.30;1.23;;;8.00;99.90;;;;;;5083947;27;20047;-68
2021/10/22 01:01:16;;;;;;;17.77;2.55;;;7.90;99.90;;;;;;5104095;27;20040;-67
2021/10/22 01:03:41;;;;;;;13.45;2.08;;;7.90;99.90;;;;;;5104298;28;20051;-67
2021/10/22 01:06:09;;;;;;;11.43;1.48;;;7.90;99.90;;;;;;5100389;28;20039;-67
2021/10/22 01:08:35;;;;;;;9.15;1.13;;;8.00;99.90;;;;;;5101741;28;20104;-67
2021/10/22 01:11:02;;;;;;;14.05;2.13;;;7.90;99.90;;;;;;5131345;27;20039;-67
2021/10/22 01:13:28;;;;;;;10.35;1.38;;;7.90;99.90;;;;;;5100671;28;20393;-67
2021/10/22 01:15:53;;;;;;;14.88;1.23;;;7.90;99.90;;;;;;5129566;27;20035;-67
2021/10/22 01:18:19;;;;;;;13.02;1.50;;;7.80;99.90;;;;;;5102709;28;20032;-67
2021/10/22 01:20:45;;;;;;;12.50;2.63;;;7.80;99.90;;;;;;5101553;28;20163;-67
2021/10/22 01:23:11;;;;;;;9.90;1.20;;;7.70;99.90;;;;;;5104147;28;20118;-67
2021/10/22 01:25:36;;;;;;;8.45;2.15;;;7.70;99.90;;;;;;5099752;28;20035;-67
2021/10/22 01:28:02;;;;;;;9.57;1.45;;;7.70;99.90;;;;;;5127781;27;20040;-67
2021/10/22 01:30:30;;;;;;;8.27;1.25;;;7.70;99.90;;;;;;5105683;28;20036;-67
2021/10/22 01:33:03;;;;;;;13.63;1.45;;;7.60;99.90;;;;;;5107451;28;20374;-67
2021/10/22 01:35:29;;;;;;;7.65;1.20;;;7.60;99.90;;;;;;5087291;28;20043;-67
2021/10/22 01:37:55;;;;;;;9.88;1.10;;;7.60;99.90;;;;;;5103062;28;20036;-67
2021/10/22 01:40:21;;;;;;;11.52;1.70;;;7.60;99.90;;;;;;5133266;27;20044;-67
2021/10/22 01:42:47;;;;;;;14.75;2.25;;;7.50;99.90;;;;;;5105215;27;20041;-67
2021/10/22 01:45:13;;;;;;;6.85;1.15;;;7.50;99.90;;;;;;5105655;28;20058;-67
2021/10/22 01:47:39;;;;;;;14.90;1.60;;;7.60;99.90;;;;;;5103230;28;20390;-67
2021/10/22 01:50:06;;;;;;;8.38;1.15;;;7.50;99.90;;;;;;5104838;28;20046;-67
2021/10/22 01:52:31;;;;;;;8.77;1.42;;;7.50;99.90;;;;;;5107258;28;20043;-67
2021/10/22 01:54:57;;;;;;;12.32;1.33;;;7.50;99.90;;;;;;5110687;27;20047;-67
2021/10/22 01:57:25;;;;;;;8.63;1.52;;;7.50;99.90;;;;;;5108103;27;20453;-67
2021/10/22 01:59:50;;;;;;;15.98;1.95;;;7.50;99.90;;;;;;5090850;28;20061;-67
2021/10/22 02:02:17;;;;;;;12.27;2.28;;;7.50;99.90;;;;;;5108331;27;20040;-67
2021/10/22 02:04:43;;;;;;;13.35;1.23;;;7.60;99.90;;;;;;5113357;27;20044;-67
2021/10/22 02:07:08;;;;;;;8.88;1.02;;;7.60;99.90;;;;;;5108146;28;20046;-67
2021/10/22 02:09:34;;;;;;;15.73;1.38;;;7.60;99.90;;;;;;5107363;27;20039;-67
2021/10/22 02:12:00;;;;;;;10.30;1.85;;;7.60;99.90;;;;;;5108613;27;20034;-67
2021/10/22 02:14:25;;;;;;;9.77;1.50;;;7.60;99.90;;;;;;5106116;27;20031;-67
2021/10/22 02:16:51;;;;;;;7.60;1.23;;;7.60;99.90;;;;;;5103190;27;20083;-67
2021/10/22 02:19:17;;;;;;;13.52;1.38;;;7.60;99.90;;;;;;5106892;27;20119;-66
2021/10/22 02:21:42;;;;;;;13.85;1.48;;;7.60;99.90;;;;;;5105359;27;20054;-67
2021/10/22 02:24:08;;;;;;;7.93;1.52;;;7.60;99.90;;;;;;5107784;27;20036;-67
2021/10/22 02:26:34;;;;;;;17.00;1.52;;;7.70;99.90;;;;;;5091259;27;20066;-67
2021/10/22 02:29:00;;;;;;;11.38;1.98;;;7.70;99.90;;;;;;5106361;27;20384;-67
2021/10/22 02:31:26;;;;;;;11.32;1.33;;;7.70;99.90;;;;;;5108492;27;20102;-67
2021/10/22 02:33:51;;;;;;;14.70;1.60;;;7.70;99.90;;;;;;5100580;27;20723;-67
2021/10/22 02:36:17;;;;;;;11.75;1.23;;;7.70;99.90;;;;;;5109604;27;20020;-67
2021/10/22 02:38:44;;;;;;;7.45;1.73;;;7.70;99.90;;;;;;5105472;27;20074;-67
2021/10/22 02:41:09;;;;;;;9.70;1.08;;;7.70;99.90;;;;;;5107168;27;20043;-67
2021/10/22 02:43:35;;;;;;;8.57;1.13;;;7.70;99.90;;;;;;5105594;27;20043;-67
2021/10/22 02:46:01;;;;;;;8.18;1.90;;;7.80;99.90;;;;;;5112223;27;20040;-67
2021/10/22 02:48:27;;;;;;;11.82;1.67;;;7.70;99.90;;;;;;5106850;27;20036;-67
2021/10/22 02:50:52;;;;;;;8.98;1.45;;;7.70;99.90;;;;;;5108282;27;20035;-67
2021/10/22 02:53:18;;;;;;;10.55;1.38;;;7.70;99.90;;;;;;5109871;27;20051;-67
2021/10/22 02:55:43;;;;;;;14.70;1.55;;;7.80;99.90;;;;;;5111403;27;20042;-67
2021/10/22 02:58:09;;;;;;;10.35;1.27;;;7.80;99.90;;;;;;5112894;27;20067;-67
2021/10/22 03:00:36;;;;;;;12.90;1.80;;;7.70;99.90;;;;;;5109325;27;20134;-67
2021/10/22 03:03:02;;;;;;;6.38;0.95;;;7.70;99.90;;;;;;5104960;28;20044;-67
2021/10/22 03:05:30;;;;;;;12.00;1.63;;;7.70;99.90;;;;;;5109009;27;20048;-67
2021/10/22 03:07:56;;;;;;;9.23;1.70;;;7.70;99.90;;;;;;5107232;27;20405;-67
2021/10/22 03:10:22;;;;;;;9.05;1.63;;;7.70;99.90;;;;;;5108375;27;20032;-67
2021/10/22 03:12:47;;;;;;;9.45;1.63;;;7.80;99.90;;;;;;5106860;27;20040;-67
2021/10/22 03:15:13;;;;;;;11.23;2.45;;;7.80;99.90;;;;;;5104780;28;20478;-67
2021/10/22 03:17:39;;;;;;;17.08;1.90;;;7.80;99.90;;;;;;5103702;27;20044;-67
2021/10/22 03:20:05;;;;;;;6.85;1.08;;;7.80;99.90;;;;;;5104395;28;20058;-67
2021/10/22 03:22:31;;;;;;;10.65;1.38;;;7.90;99.90;;;;;;5106349;27;20489;-67
2021/10/22 03:24:56;;;;;;;12.60;1.75;;;7.80;99.90;;;;;;5104213;27;20075;-67
2021/10/22 03:27:23;;;;;;;11.63;1.58;;;7.80;99.90;;;;;;5104554;27;20044;-67
2021/10/22 03:29:49;;;;;;;14.20;2.33;;;7.90;99.90;;;;;;5102603;27;20481;-67
2021/10/22 03:32:15;;;;;;;12.30;1.90;;;7.80;99.90;;;;;;5086480;28;20040;-67
2021/10/22 03:34:42;;;;;;;11.75;1.73;;;7.90;99.90;;;;;;5103033;27;20038;-67
2021/10/22 03:37:07;;;;;;;12.70;1.40;;;7.90;99.90;;;;;;5099909;27;20051;-67
2021/10/22 03:39:33;;;;;;;11.90;2.45;;;7.90;99.90;;;;;;5097470;28;20054;-67
2021/10/22 03:41:58;;;;;;;16.67;1.73;;;7.90;99.90;;;;;;5125255;27;20044;-67
2021/10/22 03:44:24;;;;;;;19.27;1.77;;;8.00;99.90;;;;;;5079780;27;20082;-67
2021/10/22 03:46:50;;;;;;;16.27;1.50;;;7.90;99.90;;;;;;5094269;28;20070;-67
2021/10/22 03:49:15;;;;;;;15.43;2.28;;;8.00;99.90;;;;;;5101688;27;20082;-67
2021/10/22 03:51:41;;;;;;;13.68;1.40;;;8.00;99.90;;;;;;5095911;28;20043;-67
2021/10/22 03:54:07;;;;;;;11.55;3.15;;;8.00;99.90;;;;;;5094934;27;20051;-67
2021/10/22 03:56:33;;;;;;;10.57;1.17;;;8.00;99.90;;;;;;5126758;27;20032;-67
2021/10/22 03:58:58;;;;;;;15.15;2.60;;;7.90;99.90;;;;;;5096166;27;20056;-67
2021/10/22 04:01:24;;;;;;;11.57;1.58;;;7.90;99.90;;;;;;5097712;27;20052;-67
2021/10/22 04:03:49;;;;;;;11.82;1.92;;;7.90;99.90;;;;;;5095568;27;20047;-67
2021/10/22 04:06:16;;;;;;;9.63;1.50;;;7.90;99.90;;;;;;5124088;27;20048;-67
2021/10/22 04:08:42;;;;;;;10.73;1.75;;;7.80;99.90;;;;;;5099075;27;20052;-67
2021/10/22 04:11:08;;;;;;;13.82;1.67;;;7.80;99.90;;;;;;5097357;27;20027;-67
2021/10/22 04:13:33;;;;;;;9.13;1.48;;;7.90;99.90;;;;;;5098978;27;20386;-67
2021/10/22 04:15:59;;;;;;;8.90;2.15;;;7.90;99.90;;;;;;5095047;28;20024;-67
2021/10/22 04:18:26;;;;;;;13.10;1.52;;;8.00;99.90;;;;;;5096634;27;20063;-67
2021/10/22 04:20:53;;;;;;;12.18;1.65;;;7.90;99.90;;;;;;5095987;28;20166;-68
2021/10/22 04:23:18;;;;;;;9.77;1.63;;;7.90;99.90;;;;;;5094560;28;20520;-68
2021/10/22 04:25:44;;;;;;;12.30;2.03;;;7.90;99.90;;;;;;5094026;28;20048;-68
2021/10/22 04:28:10;;;;;;;13.00;1.83;;;7.90;99.90;;;;;;5095971;28;20047;-67
2021/10/22 04:30:36;;;;;;;12.43;1.73;;;7.90;99.90;;;;;;5097093;27;20036;-67
2021/10/22 04:33:03;;;;;;;15.27;2.20;;;7.90;99.90;;;;;;5094582;28;20039;-67
2021/10/22 04:35:31;;;;;;;12.98;1.63;;;7.90;99.90;;;;;;5095590;28;20036;-67
2021/10/22 04:40:31;;;;;;;10.45;1.30;;;8.00;99.90;;;;;;5094159;27;20108;-67
2021/10/22 04:42:58;;;;;;;11.27;1.73;;;8.00;99.90;;;;;;5094531;28;20144;-67
2021/10/22 04:45:24;;;;;;;11.63;1.80;;;8.00;99.90;;;;;;5097032;28;20040;-67
2021/10/22 04:47:50;;;;;;;13.45;1.92;;;8.00;99.90;;;;;;5099030;28;20763;-67
2021/10/22 04:50:16;;;;;;;13.50;2.05;;;8.10;99.90;;;;;;5095948;28;20132;-67
2021/10/22 04:52:42;;;;;;;13.95;3.53;;;8.10;99.90;;;;;;5103538;28;20065;-67
2021/10/22 04:55:08;;;;;;;21.35;1.55;;;8.20;99.90;;;;;;5099324;28;20114;-67
2021/10/22 04:57:34;;;;;;;12.13;1.88;;;8.20;99.90;;;;;;5104175;28;20043;-67
2021/10/22 05:00:00;;;;;;;13.43;1.67;;;8.10;99.90;;;;;;5102643;27;20558;-67
2021/10/22 05:02:26;;;;;;;12.27;1.75;;;8.10;99.90;;;;;;5100556;28;20138;-67
2021/10/22 05:04:51;;;;;;;15.20;1.73;;;8.10;99.90;;;;;;5104273;28;20040;-67
2021/10/22 05:07:17;;;;;;;10.15;1.30;;;8.10;99.90;;;;;;5100803;28;20405;-67
2021/10/22 05:09:43;;;;;;;12.48;1.27;;;8.20;99.90;;;;;;5095734;28;20373;-67
2021/10/22 05:12:08;;;;;;;12.30;1.50;;;8.10;99.90;;;;;;5099967;28;20039;-67
2021/10/22 05:14:35;;;;;;;14.63;1.83;;;8.20;99.90;;;;;;5102185;28;20058;-67
2021/10/22 05:17:01;;;;;;;11.68;1.92;;;8.20;99.90;;;;;;5104833;28;20098;-67
2021/10/22 05:19:27;;;;;;;11.25;1.50;;;8.20;99.90;;;;;;5103053;28;20040;-67
2021/10/22 05:21:53;;;;;;;10.02;1.27;;;8.20;99.90;;;;;;5115562;27;20040;-67
2021/10/22 05:24:19;;;;;;;16.10;1.33;;;8.30;99.90;;;;;;5098292;28;20626;-67
2021/10/22 05:26:44;;;;;;;10.20;1.25;;;8.30;99.90;;;;;;5097949;27;20051;-67
2021/10/22 05:29:10;;;;;;;11.23;1.10;;;8.30;99.90;;;;;;5104302;28;20385;-67
2021/10/22 05:31:35;;;;;;;8.98;1.23;;;8.30;99.90;;;;;;5100840;28;20035;-67
2021/10/22 05:34:01;;;;;;;10.95;1.30;;;8.30;99.90;;;;;;5101354;28;20424;-67
2021/10/22 05:36:27;;;;;;;10.52;1.05;;;8.40;99.90;;;;;;5103163;27;20086;-67
2021/10/22 05:38:52;;;;;;;12.38;1.50;;;8.40;99.90;;;;;;5099729;28;21140;-68
2021/10/22 05:41:19;;;;;;;10.30;1.25;;;8.40;99.90;;;;;;5100290;28;20375;-67
2021/10/22 05:43:45;;;;;;;11.07;1.70;;;8.40;99.90;;;;;;5100411;27;20502;-67
2021/10/22 05:46:11;;;;;;;11.77;1.67;;;8.40;99.90;;;;;;5098012;27;20044;-68
2021/10/22 05:48:36;;;;;;;12.18;1.88;;;8.50;99.90;;;;;;5100165;28;20048;-68
2021/10/22 05:51:02;;;;;;;12.07;1.63;;;8.50;99.90;;;;;;5102626;27;20374;-67
2021/10/22 05:53:28;;;;;;;11.77;1.33;;;8.50;99.90;;;;;;5102009;27;20084;-67
2021/10/22 05:55:53;;;;;;;7.53;1.15;;;8.50;99.90;;;;;;5098311;28;20047;-67
2021/10/22 05:58:20;;;;;;;10.23;2.15;;;8.50;99.90;;;;;;5097475;28;20043;-67
2021/10/22 06:00:47;;;;;;;16.25;1.80;;;8.50;99.90;;;;;;5091969;27;20081;-67
2021/10/22 06:03:14;;;;;;;11.60;1.05;;;8.50;99.90;;;;;;5099417;28;20040;-67
2021/10/22 06:05:40;;;;;;;10.32;1.17;;;8.60;99.90;;;;;;5097661;27;20489;-67
2021/10/22 06:08:07;;;;;;;15.25;1.95;;;8.60;99.90;;;;;;5099430;27;20046;-67
2021/10/22 06:10:33;;;;;;;11.55;1.98;;;8.60;99.90;;;;;;5129450;27;20363;-67
2021/10/22 06:12:59;;;;;;;14.70;1.73;;;8.60;99.90;;;;;;5098864;27;20044;-68
2021/10/22 06:15:25;;;;;;;13.18;1.67;;;8.60;99.90;;;;;;5101877;27;20072;-68
2021/10/22 06:17:53;;;;;;;16.80;2.67;;;8.60;99.90;;;;;;5096646;27;20039;-68
2021/10/22 06:20:27;;;;;;;12.73;2.05;;;8.60;99.90;;;;;;5094671;27;20055;-68
2021/10/22 06:25:42;;;;;;;8.90;1.42;;;8.60;99.90;;;;;;5098056;28;20047;-67
2021/10/22 06:28:08;;;;;;;9.65;1.33;;;8.60;99.90;;;;;;5101478;27;20373;-67
2021/10/22 06:30:34;;;;;;;10.55;1.10;;;8.60;99.90;;;;;;5099292;28;20040;-67
2021/10/22 06:33:00;;;;;;;13.18;1.83;;;8.60;99.90;;;;;;5096482;28;20043;-67
2021/10/22 06:35:26;;;;;;;15.55;2.67;;;8.60;99.90;;;;;;5100105;28;20160;-67
2021/10/22 06:37:51;;;;;;;19.55;2.00;;;8.60;99.90;;;;;;5099132;27;20044;-67
2021/10/22 06:40:17;;;;;;;19.60;1.67;;;8.60;99.90;;;;;;5097534;27;20035;-67
2021/10/22 06:42:43;;;;;;;15.45;2.38;;;9.00;99.90;;;;;;5097189;27;20047;-67
2021/10/22 06:45:10;;;;;;;14.63;2.00;;;8.60;99.90;;;;;;5098195;28;20073;-67
2021/10/22 06:47:35;;;;;;;10.27;1.25;;;8.60;99.90;;;;;;5082407;28;20064;-67
2021/10/22 06:50:02;;;;;;;14.18;1.98;;;8.70;99.90;;;;;;5097328;27;20663;-67
2021/10/22 06:52:27;;;;;;;14.52;1.85;;;8.70;99.90;;;;;;5097488;27;20039;-67
2021/10/22 06:54:53;;;;;;;13.73;2.45;;;8.80;99.90;;;;;;5095969;28;20028;-67
2021/10/22 06:57:18;;;;;;;11.70;1.35;;;8.80;99.90;;;;;;5098012;27;20036;-67
2021/10/22 06:59:44;;;;;;;12.10;2.35;;;8.80;99.90;;;;;;5095325;28;20040;-67
2021/10/22 07:02:10;;;;;;;10.30;1.45;;;8.80;99.90;;;;;;5098690;28;20032;-67
2021/10/22 07:04:37;;;;;;;14.48;1.73;;;8.80;99.90;;;;;;5097578;27;20035;-67
2021/10/22 07:07:15;;;;;;;12.98;1.50;;;8.90;99.90;;;;;;5093967;28;20067;-67
2021/10/22 07:09:42;;;;;;;15.52;2.33;;;8.90;99.90;;;;;;5128267;27;20627;-67
2021/10/22 07:12:08;;;;;;;14.82;2.75;;;8.90;99.90;;;;;;5098410;28;20065;-67
2021/10/22 07:14:35;;;;;;;10.18;1.00;;;9.00;99.90;;;;;;5098659;28;20729;-67
2021/10/22 07:17:04;;;;;;;11.88;1.95;;;9.10;99.90;;;;;;5098048;27;20036;-67
2021/10/22 07:19:30;;;;;;;17.20;1.85;;;9.10;99.90;;;;;;5098298;27;20043;-67
2021/10/22 07:22:00;;;;;;;10.27;1.50;;;9.10;99.90;;;;;;5093189;28;20614;-67
2021/10/22 07:24:26;;;;;;;10.38;1.52;;;9.20;99.90;;;;;;5098951;27;20481;-67
2021/10/22 07:26:51;;;;;;;13.45;1.48;;;9.20;99.90;;;;;;5094951;27;20072;-67
2021/10/22 07:29:17;;;;;;;15.75;2.10;;;9.20;99.90;;;;;;5094782;28;20034;-67
2021/10/22 07:31:43;;;;;;;6.13;0.93;;;9.20;99.90;;;;;;5099418;27;20032;-67
2021/10/22 07:34:11;;;;;;;11.27;1.40;;;9.20;99.90;;;;;;5100092;28;20122;-67
2021/10/22 07:36:37;;;;;;;12.02;1.50;;;9.20;99.90;;;;;;5094462;27;21488;-66
2021/10/22 07:39:03;;;;;;;9.40;1.38;;;9.20;99.90;;;;;;5096530;27;20084;-67
2021/10/22 07:41:29;;;;;;;15.27;1.60;;;9.20;99.90;;;;;;5081816;27;20051;-67
2021/10/22 07:43:55;;;;;;;11.18;1.95;;;9.30;99.90;;;;;;5094277;28;20051;-67
2021/10/22 07:46:20;;;;;;;12.73;2.05;;;9.30;99.90;;;;;;5100581;28;20485;-67
2021/10/22 07:48:46;;;;;;;8.45;1.20;;;9.30;99.90;;;;;;5095949;27;20043;-67
2021/10/22 07:51:12;;;;;;;11.68;1.63;;;9.40;99.90;;;;;;5128789;27;20437;-67
2021/10/22 07:53:37;;;;;;;12.07;1.77;;;9.30;99.90;;;;;;5095860;28;20044;-67
2021/10/22 07:56:05;;;;;;;19.20;2.17;;;9.40;99.90;;;;;;5097165;28;20044;-67
2021/10/22 07:58:31;;;;;;;13.00;2.17;;;9.40;99.90;;;;;;5125732;27;20039;-67
2021/10/22 08:00:57;;;;;;;11.07;1.52;;;9.40;99.90;;;;;;5096345;28;20120;-68
2021/10/22 08:03:24;;;;;;;16.35;2.40;;;9.40;99.90;;;;;;5091227;27;20043;-68
2021/10/22 08:05:50;;;;;;;13.38;2.88;;;9.40;99.90;;;;;;5087039;27;20067;-68
2021/10/22 08:08:16;;;;;;;18.35;2.15;;;9.30;99.90;;;;;;5088712;27;20168;-68
2021/10/22 08:10:42;;;;;;;15.70;2.70;;;9.30;99.90;;;;;;5089749;27;20028;-67
2021/10/22 08:13:11;;;;;;;14.13;2.10;;;9.30;99.90;;;;;;5094969;27;20047;-67
2021/10/22 08:15:40;;;;;;;19.45;2.63;;;9.30;99.90;;;;;;5097354;28;20047;-67
2021/10/22 08:18:08;;;;;;;23.05;2.42;;;9.30;99.90;;;;;;5095567;28;20039;-67
2021/10/22 08:20:35;;;;;;;12.45;1.88;;;9.30;99.90;;;;;;5125611;27;20068;-67
2021/10/22 08:23:02;;;;;;;11.32;2.03;;;9.30;99.90;;;;;;5092638;27;20040;-67
2021/10/22 08:25:28;;;;;;;17.20;2.67;;;9.40;99.90;;;;;;5097499;28;20051;-67
2021/10/22 08:27:54;;;;;;;12.93;2.10;;;9.40;99.90;;;;;;5097326;27;20032;-67
2021/10/22 08:30:23;;;;;;;10.55;1.73;;;9.40;99.90;;;;;;5097708;27;20097;-68
2021/10/22 08:32:55;;;;;;;13.77;2.58;;;9.40;99.90;;;;;;5096473;28;20067;-68
2021/10/22 08:35:23;;;;;;;16.88;1.67;;;9.40;99.90;;;;;;5093367;28;20040;-67
2021/10/22 08:37:49;;;;;;;13.57;1.80;;;9.40;99.90;;;;;;5097229;28;20047;-67
2021/10/22 08:40:16;;;;;;;9.35;1.92;;;9.40;99.90;;;;;;5094576;28;20392;-67
2021/10/22 08:42:43;;;;;;;13.07;2.75;;;9.50;99.90;;;;;;5095982;27;20032;-67
2021/10/22 08:45:09;;;;;;;14.60;2.20;;;9.40;99.90;;;;;;5092331;28;20054;-67
2021/10/22 08:47:35;;;;;;;10.45;2.00;;;9.50;99.90;;;;;;5126024;27;20047;-67
2021/10/22 08:50:07;;;;;;;15.10;1.88;;;9.60;99.90;;;;;;5096966;28;20044;-67
2021/10/22 08:52:34;;;;;;;18.80;2.25;;;9.60;99.90;;;;;;5095862;28;20028;-67
2021/10/22 08:55:02;;;;;;;18.95;2.55;;;9.70;99.90;;;;;;5094604;28;20038;-67
2021/10/22 08:57:28;;;;;;;18.90;2.40;;;9.80;99.90;;;;;;5097816;28;20061;-67
2021/10/22 08:59:57;;;;;;;15.50;2.35;;;9.90;99.90;;;;;;5095179;27;20036;-67
2021/10/22 09:02:25;;;;;;;16.10;2.50;;;10.00;99.90;;;;;;5099150;28;20051;-67
2021/10/22 09:04:57;;;;;;;14.70;2.58;;;10.10;99.90;;;;;;5093334;28;20047;-67
2021/10/22 09:07:40;;;;;;;11.80;1.83;;;10.10;99.90;;;;;;5096291;28;20043;-67
2021/10/22 09:10:23;;;;;;;10.23;1.70;;;10.00;99.90;;;;;;5096608;27;20047;-67
2021/10/22 09:12:54;;;;;;;16.55;1.67;;;9.90;99.90;;;;;;5094257;28;20088;-67
2021/10/22 09:15:25;;;;;;;8.55;1.02;;;9.90;99.90;;;;;;5095609;28;20079;-67
2021/10/22 09:17:52;;;;;;;9.57;1.33;;;9.90;99.90;;;;;;5094686;28;20035;-68
2021/10/22 09:20:21;;;;;;;8.10;1.08;;;9.80;99.90;;;;;;5093402;28;20047;-67
2021/10/22 09:22:50;;;;;;;7.60;0.60;;;9.70;99.90;;;;;;5095136;28;20085;-67
2021/10/22 09:25:19;;;;;;;5.70;1.13;;;9.60;99.90;;;;;;5095989;28;20209;-67
2021/10/22 09:27:49;;;;;;;7.30;0.73;;;9.50;99.90;;;;;;5094703;28;20040;-67
2021/10/22 09:30:23;;;;;;;5.13;0.43;;;9.40;99.90;;;;;;5095736;28;20028;-67
2021/10/22 09:32:50;;;;;;;4.75;0.68;;;9.40;99.90;;;;;;5095464;28;20489;-67
2021/10/22 09:35:33;;;;;;;4.60;0.73;;;9.40;99.90;;;;;;5094934;28;20113;-67
2021/10/22 09:38:18;;;;;;;6.22;0.75;;;9.40;99.90;;;;;;5124907;27;20100;-67
2021/10/22 09:40:57;;;;;;;11.50;1.30;;;9.50;99.90;;;;;;5091598;28;20036;-68
2021/10/22 09:43:29;;;;;;;12.20;1.42;;;9.50;99.90;;;;;;5095154;28;20934;-68
2021/10/22 09:46:12;;;;;;;12.00;1.70;;;9.50;99.90;;;;;;5094395;28;20048;-67
2021/10/22 09:48:39;;;;;;;9.52;1.58;;;9.50;99.90;;;;;;5095879;28;20044;-67
2021/10/22 09:51:27;;;;;;;6.88;0.90;;;9.40;99.90;;;;;;5094904;28;20036;-67
2021/10/22 09:54:00;;;;;;;7.43;0.95;;;9.40;99.90;;;;;;5094372;28;20065;-67
2021/10/22 09:56:28;;;;;;;11.73;1.17;;;9.40;99.90;;;;;;5095043;28;20997;-67
2021/10/22 09:59:03;;;;;;;9.50;1.13;;;9.40;99.90;;;;;;5090748;28;20131;-67
2021/10/22 10:01:35;;;;;;;10.02;1.85;;;9.40;99.90;;;;;;5095924;28;20035;-67
2021/10/22 10:04:01;;;;;;;10.35;1.60;;;9.60;99.90;;;;;;5111607;27;20542;-67
2021/10/22 10:06:29;;;;;;;22.98;2.60;;;9.60;99.90;;;;;;5094787;28;20050;-68
2021/10/22 10:08:55;;;;;;;17.30;2.95;;;9.70;99.90;;;;;;5094626;28;20035;-68
2021/10/22 10:11:25;;;;;;;13.68;1.85;;;9.70;99.90;;;;;;5096463;28;20481;-67
2021/10/22 10:13:52;;;;;;;7.68;1.70;;;9.80;99.90;;;;;;5098927;28;20039;-67
2021/10/22 10:16:18;;;;;;;13.15;1.95;;;9.70;99.90;;;;;;5097610;27;20271;-67
2021/10/22 10:19:12;;;;;;;18.05;2.45;;;9.80;99.90;;;;;;5099030;28;20062;-67
2021/10/22 10:21:48;;;;;;;15.55;2.17;;;9.80;99.90;;;;;;5095753;28;20489;-67
2021/10/22 10:24:18;;;;;;;13.48;2.13;;;10.00;99.90;;;;;;5100642;27;20043;-67
2021/10/22 10:26:44;;;;;;;11.18;1.77;;;10.10;99.90;;;;;;5098433;27;20043;-67
2021/10/22 10:29:27;;;;;;;20.13;2.53;;;10.20;99.90;;;;;;5098430;28;20418;-67
2021/10/22 10:32:06;;;;;;;17.50;2.30;;;10.50;99.90;;;;;;5101698;28;20027;-67
2021/10/22 10:34:51;;;;;;;10.88;2.25;;;10.70;99.90;;;;;;5094167;28;20520;-68
2021/10/22 10:37:21;;;;;;;5.93;0.82;;;10.80;99.90;;;;;;5128837;27;20035;-67
2021/10/22 10:39:50;;;;;;;8.38;1.17;;;10.70;99.90;;;;;;5095622;28;20053;-67
2021/10/22 10:42:34;;;;;;;9.25;1.77;;;10.50;99.90;;;;;;5095817;28;20125;-67
2021/10/22 10:45:05;;;;;;;5.32;0.90;;;10.50;99.90;;;;;;5097475;28;20058;-67
2021/10/22 10:47:31;;;;;;;9.35;0.90;;;10.30;99.90;;;;;;5097483;28;20157;-68
2021/10/22 10:50:01;;;;;;;12.60;3.13;;;10.20;99.90;;;;;;5101149;28;20060;-67
2021/10/22 10:52:42;;;;;;;9.70;1.77;;;10.10;99.90;;;;;;5099515;28;20152;-67
2021/10/22 10:55:30;;;;;;;9.30;1.65;;;10.00;99.90;;;;;;5096106;28;20043;-67
2021/10/22 10:58:08;;;;;;;9.95;1.40;;;10.00;99.90;;;;;;5116711;27;20039;-67
2021/10/22 11:00:55;;;;;;;12.13;2.08;;;10.00;99.90;;;;;;5098810;28;20032;-67
2021/10/22 11:03:23;;;;;;;9.25;1.27;;;10.10;99.90;;;;;;5095313;27;20039;-67
2021/10/22 11:05:50;;;;;;;10.48;1.45;;;10.30;99.90;;;;;;5103476;28;20040;-68
2021/10/22 11:08:30;;;;;;;9.82;1.73;;;10.40;99.90;;;;;;5099812;28;20055;-67
2021/10/22 11:11:05;;;;;;;14.80;1.98;;;10.30;99.90;;;;;;5125950;27;20067;-67
2021/10/22 11:13:47;;;;;;;9.05;1.17;;;10.30;99.90;;;;;;5096198;28;21356;-67
2021/10/22 11:18:52;;;;;;;8.68;0.98;;;10.30;99.90;;;;;;5100399;27;20062;-67
2021/10/22 11:21:21;;;;;;;13.57;1.90;;;10.30;99.90;;;;;;5130275;27;20083;-67
2021/10/22 11:23:48;;;;;;;10.02;1.40;;;10.40;99.90;;;;;;5099693;27;20550;-67
2021/10/22 11:26:19;;;;;;;13.00;1.20;;;10.40;99.90;;;;;;5096899;27;20055;-67
2021/10/22 11:28:53;;;;;;;13.45;2.92;;;10.40;99.90;;;;;;5102751;28;20040;-67
2021/10/22 11:31:40;;;;;;;12.18;1.58;;;10.40;99.90;;;;;;5126474;27;20478;-67
2021/10/22 11:34:08;;;;;;;15.95;1.92;;;10.40;99.90;;;;;;5098958;27;20031;-67
2021/10/22 11:36:34;;;;;;;11.02;3.25;;;10.50;99.90;;;;;;5095490;28;20036;-67
2021/10/22 11:39:01;;;;;;;10.40;1.65;;;10.60;99.90;;;;;;5096632;28;20367;-67
2021/10/22 11:41:27;;;;;;;10.80;1.55;;;10.60;99.90;;;;;;5097741;28;20123;-67
2021/10/22 11:44:07;;;;;;;11.57;1.73;;;10.70;99.90;;;;;;5093492;27;20040;-67
2021/10/22 11:46:44;;;;;;;14.35;1.88;;;10.80;99.90;;;;;;5125695;27;20060;-67
2021/10/22 11:49:28;;;;;;;10.77;1.80;;;10.90;99.90;;;;;;5098318;28;20047;-67
2021/10/22 11:51:57;;;;;;;15.48;2.70;;;11.00;99.90;;;;;;5129576;27;20036;-67
2021/10/22 11:54:28;;;;;;;13.18;2.22;;;11.00;99.90;;;;;;5127210;27;20043;-67
2021/10/22 11:56:54;;;;;;;5.80;1.02;;;10.90;99.90;;;;;;5094417;28;20047;-67
2021/10/22 11:59:20;;;;;;;9.15;0.70;;;10.70;99.90;;;;;;5100328;28;20036;-67
2021/10/22 12:01:45;;;;;;;4.55;1.35;;;10.60;99.90;;;;;;5099040;28;20089;-67
2021/10/22 12:04:25;;;;;;;5.30;0.70;;;10.50;99.90;;;;;;5095850;28;20039;-67
2021/10/22 12:07:11;;;;;;;4.40;0.40;;;10.30;99.90;;;;;;5097521;27;20044;-67
2021/10/22 12:09:40;;;;;;;8.45;0.73;;;10.20;99.90;;;;;;5097484;28;20090;-67
2021/10/22 12:12:13;;;;;;;6.45;0.80;;;10.20;99.90;;;;;;5097743;28;20032;-67
2021/10/22 12:14:48;;;;;;;3.83;0.68;;;10.20;99.90;;;;;;5094660;28;20494;-67
2021/10/22 12:17:21;;;;;;;4.30;0.93;;;10.20;99.90;;;;;;5094316;27;20127;-67
2021/10/22 12:19:48;;;;;;;5.20;0.90;;;10.30;99.90;;;;;;5124590;27;20048;-67
2021/10/22 12:22:15;;;;;;;6.60;1.00;;;10.40;99.90;;;;;;5097500;28;20039;-67
2021/10/22 12:24:47;;;;;;;5.60;0.70;;;10.50;99.90;;;;;;5096671;27;20083;-67
2021/10/22 12:27:14;;;;;;;5.30;0.70;;;10.50;99.90;;;;;;5115649;27;20055;-67
2021/10/22 12:29:56;;;;;;;7.07;0.77;;;10.60;99.90;;;;;;5095326;28;20063;-67
2021/10/22 12:32:35;;;;;;;4.03;0.50;;;10.60;99.90;;;;;;5095560;27;20047;-67
2021/10/22 12:35:02;;;;;;;9.30;0.90;;;10.60;99.90;;;;;;5097047;28;20115;-67
2021/10/22 12:37:40;;;;;;;5.85;0.80;;;10.50;99.90;;;;;;5123780;27;20036;-67
2021/10/22 12:40:25;;;;;;;7.53;0.75;;;10.50;99.90;;;;;;5095525;28;20081;-67
2021/10/22 12:43:23;;;;;;;3.95;0.73;;;10.50;99.90;;;;;;5097792;27;20039;-67
2021/10/22 12:45:56;;;;;;;7.10;0.80;;;10.50;99.90;;;;;;5095536;27;20048;-67
2021/10/22 12:48:25;;;;;;;7.03;1.48;;;10.60;99.90;;;;;;5123491;27;20166;-67
2021/10/22 12:50:51;;;;;;;3.83;0.47;;;10.60;99.90;;;;;;5125713;27;20185;-67
2021/10/22 12:53:27;;;;;;;5.00;0.50;;;10.70;99.90;;;;;;5097482;28;20074;-67
2021/10/22 12:56:22;;;;;;;7.57;0.80;;;10.70;99.90;;;;;;5125550;27;20038;-67
2021/10/22 12:59:09;;;;;;;7.93;1.20;;;10.70;99.90;;;;;;5095796;28;20055;-67
2021/10/22 13:01:40;;;;;;;5.70;1.42;;;10.70;99.90;;;;;;5129231;27;20044;-67